sensor_id;sensor_type;location;lat;lon;timestamp;P1;durP1;ratioP1;P2;durP2;ratioP2
42602;SDS011;28233;55.748;48.752;2023-05-10T00:01:32;1.00;;;0.52;;
42602;SDS011;28233;55.748;48.752;2023-05-10T00:03:35;2.70;;;0.85;;
42602;SDS011;28233;55.748;48.752;2023-05-10T00:05:38;1.52;;;1.00;;
42602;SDS011;28233;55.748;48.752;2023-05-10T00:07:40;1.23;;;0.75;;
42602;SDS011;28233;55.748;48.752;2023-05-10T00:09:46;2.47;;;1.25;;
42602;SDS011;28233;55.748;48.752;2023-05-10T00:11:49;4.85;;;0.80;;
42602;SDS011;28233;55.748;48.752;2023-05-10T00:13:52;2.53;;;1.08;;
42602;SDS011;28233;55.748;48.752;2023-05-10T00:15:55;2.13;;;1.20;;
42602;SDS011;28233;55.748;48.752;2023-05-10T00:17:58;2.15;;;0.90;;
42602;SDS011;28233;55.748;48.752;2023-05-10T00:20:00;1.05;;;0.73;;
42602;SDS011;28233;55.748;48.752;2023-05-10T00:22:05;3.42;;;1.00;;
42602;SDS011;28233;55.748;48.752;2023-05-10T00:24:08;3.08;;;1.05;;
42602;SDS011;28233;55.748;48.752;2023-05-10T00:26:10;2.25;;;0.85;;
42602;SDS011;28233;55.748;48.752;2023-05-10T00:28:13;3.40;;;1.15;;
42602;SDS011;28233;55.748;48.752;2023-05-10T00:30:16;2.40;;;1.35;;
42602;SDS011;28233;55.748;48.752;2023-05-10T00:32:19;1.92;;;0.90;;
42602;SDS011;28233;55.748;48.752;2023-05-10T00:34:23;2.85;;;1.42;;
42602;SDS011;28233;55.748;48.752;2023-05-10T00:36:26;3.58;;;1.33;;
42602;SDS011;28233;55.748;48.752;2023-05-10T00:38:29;3.20;;;1.90;;
42602;SDS011;28233;55.748;48.752;2023-05-10T00:40:32;3.38;;;1.70;;
42602;SDS011;28233;55.748;48.752;2023-05-10T00:42:35;3.22;;;2.03;;
42602;SDS011;28233;55.748;48.752;2023-05-10T00:44:38;5.70;;;1.70;;
42602;SDS011;28233;55.748;48.752;2023-05-10T00:46:41;4.60;;;2.08;;
42602;SDS011;28233;55.748;48.752;2023-05-10T00:48:44;3.10;;;1.50;;
42602;SDS011;28233;55.748;48.752;2023-05-10T00:50:47;5.80;;;1.90;;
42602;SDS011;28233;55.748;48.752;2023-05-10T00:52:50;5.93;;;2.30;;
42602;SDS011;28233;55.748;48.752;2023-05-10T00:54:53;4.22;;;2.03;;
42602;SDS011;28233;55.748;48.752;2023-05-10T00:56:56;5.80;;;1.60;;
42602;SDS011;28233;55.748;48.752;2023-05-10T00:58:59;8.25;;;1.85;;
42602;SDS011;28233;55.748;48.752;2023-05-10T01:01:02;7.10;;;1.35;;
42602;SDS011;28233;55.748;48.752;2023-05-10T01:03:06;8.23;;;1.70;;
42602;SDS011;28233;55.748;48.752;2023-05-10T01:05:09;7.72;;;2.97;;
42602;SDS011;28233;55.748;48.752;2023-05-10T01:07:12;11.80;;;5.90;;
42602;SDS011;28233;55.748;48.752;2023-05-10T01:09:15;38.92;;;16.13;;
42602;SDS011;28233;55.748;48.752;2023-05-10T01:11:18;31.25;;;12.73;;
42602;SDS011;28233;55.748;48.752;2023-05-10T01:13:30;19.83;;;8.15;;
42602;SDS011;28233;55.748;48.752;2023-05-10T01:15:34;8.85;;;3.60;;
42602;SDS011;28233;55.748;48.752;2023-05-10T01:17:38;8.95;;;2.80;;
42602;SDS011;28233;55.748;48.752;2023-05-10T01:19:44;4.50;;;1.27;;
42602;SDS011;28233;55.748;48.752;2023-05-10T01:34:07;3.08;;;1.67;;
42602;SDS011;28233;55.748;48.752;2023-05-10T01:36:23;1.35;;;0.70;;
42602;SDS011;28233;55.748;48.752;2023-05-10T01:38:50;2.08;;;0.82;;
42602;SDS011;28233;55.748;48.752;2023-05-10T01:43:30;1.75;;;0.70;;
42602;SDS011;28233;55.748;48.752;2023-05-10T01:50:26;2.05;;;0.73;;
42602;SDS011;28233;55.748;48.752;2023-05-10T01:52:32;5.93;;;0.85;;
42602;SDS011;28233;55.748;48.752;2023-05-10T01:54:49;0.95;;;0.60;;
42602;SDS011;28233;55.748;48.752;2023-05-10T01:56:58;1.95;;;0.80;;
42602;SDS011;28233;55.748;48.752;2023-05-10T01:59:06;0.95;;;0.60;;
42602;SDS011;28233;55.748;48.752;2023-05-10T02:01:13;3.17;;;0.65;;
42602;SDS011;28233;55.748;48.752;2023-05-10T02:03:18;2.88;;;0.68;;
42602;SDS011;28233;55.748;48.752;2023-05-10T02:05:24;3.72;;;0.70;;
42602;SDS011;28233;55.748;48.752;2023-05-10T02:07:29;1.90;;;0.90;;
42602;SDS011;28233;55.748;48.752;2023-05-10T02:09:34;1.30;;;0.77;;
42602;SDS011;28233;55.748;48.752;2023-05-10T02:11:39;2.45;;;0.50;;
42602;SDS011;28233;55.748;48.752;2023-05-10T02:13:45;2.25;;;1.05;;
42602;SDS011;28233;55.748;48.752;2023-05-10T02:15:51;1.55;;;0.98;;
42602;SDS011;28233;55.748;48.752;2023-05-10T02:17:55;4.10;;;1.73;;
42602;SDS011;28233;55.748;48.752;2023-05-10T02:20:01;3.33;;;0.75;;
42602;SDS011;28233;55.748;48.752;2023-05-10T02:22:06;3.15;;;0.77;;
42602;SDS011;28233;55.748;48.752;2023-05-10T02:24:10;3.22;;;1.10;;
42602;SDS011;28233;55.748;48.752;2023-05-10T02:26:14;1.67;;;0.60;;
42602;SDS011;28233;55.748;48.752;2023-05-10T02:28:19;2.72;;;0.65;;
42602;SDS011;28233;55.748;48.752;2023-05-10T02:30:23;2.65;;;0.65;;
42602;SDS011;28233;55.748;48.752;2023-05-10T02:32:27;1.92;;;0.75;;
42602;SDS011;28233;55.748;48.752;2023-05-10T02:34:31;2.38;;;0.50;;
42602;SDS011;28233;55.748;48.752;2023-05-10T02:36:35;1.60;;;0.60;;
42602;SDS011;28233;55.748;48.752;2023-05-10T02:38:39;0.95;;;0.40;;
42602;SDS011;28233;55.748;48.752;2023-05-10T02:40:43;4.35;;;0.70;;
42602;SDS011;28233;55.748;48.752;2023-05-10T02:42:48;1.55;;;0.40;;
42602;SDS011;28233;55.748;48.752;2023-05-10T02:44:58;1.52;;;0.82;;
42602;SDS011;28233;55.748;48.752;2023-05-10T02:47:08;1.20;;;0.65;;
42602;SDS011;28233;55.748;48.752;2023-05-10T02:49:11;2.15;;;0.82;;
42602;SDS011;28233;55.748;48.752;2023-05-10T02:51:15;1.75;;;0.73;;
42602;SDS011;28233;55.748;48.752;2023-05-10T02:53:30;1.63;;;0.80;;
42602;SDS011;28233;55.748;48.752;2023-05-10T02:55:36;3.05;;;0.70;;
42602;SDS011;28233;55.748;48.752;2023-05-10T02:57:52;1.27;;;0.50;;
42602;SDS011;28233;55.748;48.752;2023-05-10T03:00:04;5.18;;;0.73;;
42602;SDS011;28233;55.748;48.752;2023-05-10T03:02:09;1.60;;;0.50;;
42602;SDS011;28233;55.748;48.752;2023-05-10T03:04:13;1.75;;;0.60;;
42602;SDS011;28233;55.748;48.752;2023-05-10T03:06:16;1.20;;;0.63;;
42602;SDS011;28233;55.748;48.752;2023-05-10T03:08:19;6.28;;;1.40;;
42602;SDS011;28233;55.748;48.752;2023-05-10T03:10:22;0.85;;;0.50;;
42602;SDS011;28233;55.748;48.752;2023-05-10T03:15:11;3.65;;;0.80;;
42602;SDS011;28233;55.748;48.752;2023-05-10T03:17:35;1.10;;;0.68;;
42602;SDS011;28233;55.748;48.752;2023-05-10T03:19:53;1.90;;;1.00;;
42602;SDS011;28233;55.748;48.752;2023-05-10T03:21:59;5.32;;;1.13;;
42602;SDS011;28233;55.748;48.752;2023-05-10T03:24:07;4.15;;;0.73;;
42602;SDS011;28233;55.748;48.752;2023-05-10T03:26:13;1.88;;;0.70;;
42602;SDS011;28233;55.748;48.752;2023-05-10T03:28:28;3.25;;;0.57;;
42602;SDS011;28233;55.748;48.752;2023-05-10T03:30:32;2.67;;;1.20;;
42602;SDS011;28233;55.748;48.752;2023-05-10T03:32:37;1.58;;;0.70;;
42602;SDS011;28233;55.748;48.752;2023-05-10T03:34:43;3.30;;;1.02;;
42602;SDS011;28233;55.748;48.752;2023-05-10T03:36:46;1.63;;;0.80;;
42602;SDS011;28233;55.748;48.752;2023-05-10T03:38:49;1.45;;;0.60;;
42602;SDS011;28233;55.748;48.752;2023-05-10T03:40:52;5.00;;;0.88;;
42602;SDS011;28233;55.748;48.752;2023-05-10T03:42:55;2.67;;;1.00;;
42602;SDS011;28233;55.748;48.752;2023-05-10T03:44:58;3.10;;;0.85;;
42602;SDS011;28233;55.748;48.752;2023-05-10T03:47:00;5.93;;;0.77;;
42602;SDS011;28233;55.748;48.752;2023-05-10T03:49:03;1.27;;;0.60;;
42602;SDS011;28233;55.748;48.752;2023-05-10T03:51:06;2.35;;;1.05;;
42602;SDS011;28233;55.748;48.752;2023-05-10T03:53:09;1.83;;;0.73;;
42602;SDS011;28233;55.748;48.752;2023-05-10T03:55:12;2.45;;;1.15;;
42602;SDS011;28233;55.748;48.752;2023-05-10T03:57:14;2.67;;;0.68;;
42602;SDS011;28233;55.748;48.752;2023-05-10T03:59:17;4.80;;;1.05;;
42602;SDS011;28233;55.748;48.752;2023-05-10T04:01:20;1.65;;;0.52;;
42602;SDS011;28233;55.748;48.752;2023-05-10T04:03:22;1.30;;;0.68;;
42602;SDS011;28233;55.748;48.752;2023-05-10T04:05:25;3.70;;;0.73;;
42602;SDS011;28233;55.748;48.752;2023-05-10T04:07:28;1.20;;;0.55;;
42602;SDS011;28233;55.748;48.752;2023-05-10T04:09:31;1.02;;;0.40;;
42602;SDS011;28233;55.748;48.752;2023-05-10T04:11:34;2.45;;;0.63;;
42602;SDS011;28233;55.748;48.752;2023-05-10T04:13:37;2.38;;;0.60;;
42602;SDS011;28233;55.748;48.752;2023-05-10T04:15:40;1.33;;;0.65;;
42602;SDS011;28233;55.748;48.752;2023-05-10T04:17:43;1.40;;;0.50;;
42602;SDS011;28233;55.748;48.752;2023-05-10T04:19:46;1.10;;;0.55;;
42602;SDS011;28233;55.748;48.752;2023-05-10T04:21:49;1.73;;;0.60;;
42602;SDS011;28233;55.748;48.752;2023-05-10T04:23:52;4.95;;;1.38;;
42602;SDS011;28233;55.748;48.752;2023-05-10T04:26:01;3.97;;;0.98;;
42602;SDS011;28233;55.748;48.752;2023-05-10T04:28:04;1.23;;;0.47;;
42602;SDS011;28233;55.748;48.752;2023-05-10T04:30:07;1.08;;;0.50;;
42602;SDS011;28233;55.748;48.752;2023-05-10T04:32:10;2.30;;;0.88;;
42602;SDS011;28233;55.748;48.752;2023-05-10T04:34:13;3.97;;;0.40;;
42602;SDS011;28233;55.748;48.752;2023-05-10T04:36:16;2.25;;;0.98;;
42602;SDS011;28233;55.748;48.752;2023-05-10T04:38:18;0.93;;;0.38;;
42602;SDS011;28233;55.748;48.752;2023-05-10T04:40:21;2.72;;;0.65;;
42602;SDS011;28233;55.748;48.752;2023-05-10T04:42:24;1.27;;;0.55;;
42602;SDS011;28233;55.748;48.752;2023-05-10T04:44:27;1.13;;;0.40;;
42602;SDS011;28233;55.748;48.752;2023-05-10T04:46:30;1.10;;;0.30;;
42602;SDS011;28233;55.748;48.752;2023-05-10T04:48:33;1.27;;;0.50;;
42602;SDS011;28233;55.748;48.752;2023-05-10T04:50:36;1.27;;;0.50;;
42602;SDS011;28233;55.748;48.752;2023-05-10T04:52:39;1.13;;;0.47;;
42602;SDS011;28233;55.748;48.752;2023-05-10T04:54:41;0.43;;;0.30;;
42602;SDS011;28233;55.748;48.752;2023-05-10T04:56:44;2.05;;;0.52;;
42602;SDS011;28233;55.748;48.752;2023-05-10T04:58:47;1.25;;;0.70;;
42602;SDS011;28233;55.748;48.752;2023-05-10T05:00:50;1.17;;;0.50;;
42602;SDS011;28233;55.748;48.752;2023-05-10T05:02:52;0.73;;;0.55;;
42602;SDS011;28233;55.748;48.752;2023-05-10T05:04:55;1.90;;;0.85;;
42602;SDS011;28233;55.748;48.752;2023-05-10T05:07:00;1.98;;;0.43;;
42602;SDS011;28233;55.748;48.752;2023-05-10T05:09:02;1.92;;;0.60;;
42602;SDS011;28233;55.748;48.752;2023-05-10T05:11:05;0.88;;;0.38;;
42602;SDS011;28233;55.748;48.752;2023-05-10T05:13:08;1.75;;;0.20;;
42602;SDS011;28233;55.748;48.752;2023-05-10T05:15:11;1.00;;;0.30;;
42602;SDS011;28233;55.748;48.752;2023-05-10T05:17:13;1.85;;;0.38;;
42602;SDS011;28233;55.748;48.752;2023-05-10T05:19:16;0.47;;;0.25;;
42602;SDS011;28233;55.748;48.752;2023-05-10T05:21:19;0.70;;;0.40;;
42602;SDS011;28233;55.748;48.752;2023-05-10T05:23:22;0.55;;;0.20;;
42602;SDS011;28233;55.748;48.752;2023-05-10T05:25:27;0.98;;;0.10;;
42602;SDS011;28233;55.748;48.752;2023-05-10T05:27:30;0.50;;;0.30;;
42602;SDS011;28233;55.748;48.752;2023-05-10T05:29:33;1.30;;;0.32;;
42602;SDS011;28233;55.748;48.752;2023-05-10T05:31:36;1.80;;;0.75;;
42602;SDS011;28233;55.748;48.752;2023-05-10T05:33:39;1.38;;;0.20;;
42602;SDS011;28233;55.748;48.752;2023-05-10T05:35:41;0.57;;;0.20;;
42602;SDS011;28233;55.748;48.752;2023-05-10T05:37:49;0.85;;;0.30;;
42602;SDS011;28233;55.748;48.752;2023-05-10T05:39:52;2.47;;;0.40;;
42602;SDS011;28233;55.748;48.752;2023-05-10T05:41:57;1.70;;;0.45;;
42602;SDS011;28233;55.748;48.752;2023-05-10T05:44:00;1.45;;;0.30;;
42602;SDS011;28233;55.748;48.752;2023-05-10T05:46:03;1.23;;;0.40;;
42602;SDS011;28233;55.748;48.752;2023-05-10T05:48:06;2.97;;;0.68;;
42602;SDS011;28233;55.748;48.752;2023-05-10T05:50:09;2.45;;;0.70;;
42602;SDS011;28233;55.748;48.752;2023-05-10T05:52:12;2.67;;;0.50;;
42602;SDS011;28233;55.748;48.752;2023-05-10T05:54:15;0.90;;;0.40;;
42602;SDS011;28233;55.748;48.752;2023-05-10T05:56:18;2.83;;;0.82;;
42602;SDS011;28233;55.748;48.752;2023-05-10T05:58:26;1.85;;;0.45;;
42602;SDS011;28233;55.748;48.752;2023-05-10T06:00:30;1.52;;;0.28;;
42602;SDS011;28233;55.748;48.752;2023-05-10T06:02:33;1.17;;;0.25;;
42602;SDS011;28233;55.748;48.752;2023-05-10T06:04:36;1.67;;;0.85;;
42602;SDS011;28233;55.748;48.752;2023-05-10T06:06:39;0.82;;;0.40;;
42602;SDS011;28233;55.748;48.752;2023-05-10T06:08:41;2.38;;;0.57;;
42602;SDS011;28233;55.748;48.752;2023-05-10T06:10:44;1.08;;;0.20;;
42602;SDS011;28233;55.748;48.752;2023-05-10T06:12:47;0.82;;;0.30;;
42602;SDS011;28233;55.748;48.752;2023-05-10T06:14:50;0.95;;;0.50;;
42602;SDS011;28233;55.748;48.752;2023-05-10T06:16:53;0.82;;;0.32;;
42602;SDS011;28233;55.748;48.752;2023-05-10T06:18:55;1.60;;;0.60;;
42602;SDS011;28233;55.748;48.752;2023-05-10T06:20:58;1.15;;;0.40;;
42602;SDS011;28233;55.748;48.752;2023-05-10T06:23:01;2.97;;;0.43;;
42602;SDS011;28233;55.748;48.752;2023-05-10T06:25:04;1.58;;;0.50;;
42602;SDS011;28233;55.748;48.752;2023-05-10T06:27:07;0.77;;;0.40;;
42602;SDS011;28233;55.748;48.752;2023-05-10T06:29:10;2.72;;;0.50;;
42602;SDS011;28233;55.748;48.752;2023-05-10T06:31:12;2.90;;;0.40;;
42602;SDS011;28233;55.748;48.752;2023-05-10T06:33:15;0.52;;;0.40;;
42602;SDS011;28233;55.748;48.752;2023-05-10T06:35:18;4.30;;;0.75;;
42602;SDS011;28233;55.748;48.752;2023-05-10T06:37:21;1.02;;;0.60;;
42602;SDS011;28233;55.748;48.752;2023-05-10T06:39:24;0.57;;;0.32;;
42602;SDS011;28233;55.748;48.752;2023-05-10T06:41:27;0.90;;;0.47;;
42602;SDS011;28233;55.748;48.752;2023-05-10T06:43:31;2.67;;;0.35;;
42602;SDS011;28233;55.748;48.752;2023-05-10T06:45:34;1.17;;;0.40;;
42602;SDS011;28233;55.748;48.752;2023-05-10T06:47:37;7.25;;;1.45;;
42602;SDS011;28233;55.748;48.752;2023-05-10T06:49:40;2.30;;;0.47;;
42602;SDS011;28233;55.748;48.752;2023-05-10T06:51:43;1.50;;;0.40;;
42602;SDS011;28233;55.748;48.752;2023-05-10T06:53:46;1.05;;;0.50;;
42602;SDS011;28233;55.748;48.752;2023-05-10T06:55:49;1.40;;;0.40;;
42602;SDS011;28233;55.748;48.752;2023-05-10T06:57:52;1.55;;;0.50;;
42602;SDS011;28233;55.748;48.752;2023-05-10T06:59:55;2.70;;;0.50;;
42602;SDS011;28233;55.748;48.752;2023-05-10T07:01:58;0.50;;;0.40;;
42602;SDS011;28233;55.748;48.752;2023-05-10T07:04:01;0.80;;;0.30;;
42602;SDS011;28233;55.748;48.752;2023-05-10T07:06:04;4.03;;;0.95;;
42602;SDS011;28233;55.748;48.752;2023-05-10T07:08:16;0.80;;;0.50;;
42602;SDS011;28233;55.748;48.752;2023-05-10T07:10:20;0.73;;;0.47;;
42602;SDS011;28233;55.748;48.752;2023-05-10T07:12:23;0.90;;;0.50;;
42602;SDS011;28233;55.748;48.752;2023-05-10T07:14:26;1.35;;;0.60;;
42602;SDS011;28233;55.748;48.752;2023-05-10T07:16:29;0.57;;;0.38;;
42602;SDS011;28233;55.748;48.752;2023-05-10T07:18:32;0.75;;;0.40;;
42602;SDS011;28233;55.748;48.752;2023-05-10T07:20:35;1.45;;;0.70;;
42602;SDS011;28233;55.748;48.752;2023-05-10T07:22:38;1.50;;;0.82;;
42602;SDS011;28233;55.748;48.752;2023-05-10T07:24:41;0.63;;;0.43;;
42602;SDS011;28233;55.748;48.752;2023-05-10T07:26:44;1.40;;;0.77;;
42602;SDS011;28233;55.748;48.752;2023-05-10T07:28:47;0.77;;;0.35;;
42602;SDS011;28233;55.748;48.752;2023-05-10T07:30:49;1.08;;;0.32;;
42602;SDS011;28233;55.748;48.752;2023-05-10T07:32:52;4.35;;;0.88;;
42602;SDS011;28233;55.748;48.752;2023-05-10T07:34:56;5.22;;;0.85;;
42602;SDS011;28233;55.748;48.752;2023-05-10T07:36:59;0.93;;;0.40;;
42602;SDS011;28233;55.748;48.752;2023-05-10T07:39:01;1.52;;;0.38;;
42602;SDS011;28233;55.748;48.752;2023-05-10T07:41:04;0.80;;;0.40;;
42602;SDS011;28233;55.748;48.752;2023-05-10T07:43:07;2.20;;;0.60;;
42602;SDS011;28233;55.748;48.752;2023-05-10T07:45:10;1.90;;;0.70;;
42602;SDS011;28233;55.748;48.752;2023-05-10T07:47:13;1.08;;;0.52;;
42602;SDS011;28233;55.748;48.752;2023-05-10T07:49:15;0.88;;;0.47;;
42602;SDS011;28233;55.748;48.752;2023-05-10T07:51:18;0.95;;;0.60;;
42602;SDS011;28233;55.748;48.752;2023-05-10T07:53:21;1.27;;;0.40;;
42602;SDS011;28233;55.748;48.752;2023-05-10T07:55:24;1.02;;;0.50;;
42602;SDS011;28233;55.748;48.752;2023-05-10T07:57:26;1.45;;;0.50;;
42602;SDS011;28233;55.748;48.752;2023-05-10T07:59:29;2.40;;;0.77;;
42602;SDS011;28233;55.748;48.752;2023-05-10T08:01:33;2.42;;;0.40;;
42602;SDS011;28233;55.748;48.752;2023-05-10T08:03:36;0.85;;;0.52;;
42602;SDS011;28233;55.748;48.752;2023-05-10T08:05:39;1.33;;;0.60;;
42602;SDS011;28233;55.748;48.752;2023-05-10T08:07:43;2.20;;;0.70;;
42602;SDS011;28233;55.748;48.752;2023-05-10T08:09:45;4.03;;;0.75;;
42602;SDS011;28233;55.748;48.752;2023-05-10T08:11:48;5.95;;;0.90;;
42602;SDS011;28233;55.748;48.752;2023-05-10T08:13:51;2.58;;;0.50;;
42602;SDS011;28233;55.748;48.752;2023-05-10T08:15:55;2.03;;;0.43;;
42602;SDS011;28233;55.748;48.752;2023-05-10T08:17:58;2.00;;;0.60;;
42602;SDS011;28233;55.748;48.752;2023-05-10T08:20:00;1.85;;;0.57;;
42602;SDS011;28233;55.748;48.752;2023-05-10T08:22:05;0.93;;;0.50;;
42602;SDS011;28233;55.748;48.752;2023-05-10T08:24:08;2.72;;;0.98;;
42602;SDS011;28233;55.748;48.752;2023-05-10T08:26:11;2.22;;;0.52;;
42602;SDS011;28233;55.748;48.752;2023-05-10T08:28:14;1.60;;;0.93;;
42602;SDS011;28233;55.748;48.752;2023-05-10T08:30:17;1.23;;;0.70;;
42602;SDS011;28233;55.748;48.752;2023-05-10T08:32:20;2.25;;;0.50;;
42602;SDS011;28233;55.748;48.752;2023-05-10T08:34:23;1.27;;;0.45;;
42602;SDS011;28233;55.748;48.752;2023-05-10T08:36:26;1.67;;;0.73;;
42602;SDS011;28233;55.748;48.752;2023-05-10T08:38:29;1.38;;;0.60;;
42602;SDS011;28233;55.748;48.752;2023-05-10T08:40:32;0.93;;;0.70;;
42602;SDS011;28233;55.748;48.752;2023-05-10T08:42:39;3.17;;;0.88;;
42602;SDS011;28233;55.748;48.752;2023-05-10T08:44:44;2.83;;;0.70;;
42602;SDS011;28233;55.748;48.752;2023-05-10T08:46:50;3.08;;;0.65;;
42602;SDS011;28233;55.748;48.752;2023-05-10T08:48:56;1.90;;;0.70;;
42602;SDS011;28233;55.748;48.752;2023-05-10T08:51:02;2.65;;;0.50;;
42602;SDS011;28233;55.748;48.752;2023-05-10T08:53:09;1.35;;;1.05;;
42602;SDS011;28233;55.748;48.752;2023-05-10T08:55:15;3.42;;;0.63;;
42602;SDS011;28233;55.748;48.752;2023-05-10T08:57:20;1.98;;;0.65;;
42602;SDS011;28233;55.748;48.752;2023-05-10T08:59:23;2.03;;;0.43;;
42602;SDS011;28233;55.748;48.752;2023-05-10T09:01:26;1.42;;;0.50;;
42602;SDS011;28233;55.748;48.752;2023-05-10T09:03:30;1.35;;;0.70;;
42602;SDS011;28233;55.748;48.752;2023-05-10T09:05:34;1.30;;;0.60;;
42602;SDS011;28233;55.748;48.752;2023-05-10T09:07:38;3.55;;;1.35;;
42602;SDS011;28233;55.748;48.752;2023-05-10T09:09:41;5.20;;;1.25;;
42602;SDS011;28233;55.748;48.752;2023-05-10T09:11:44;1.27;;;0.70;;
42602;SDS011;28233;55.748;48.752;2023-05-10T09:13:47;1.50;;;0.65;;
42602;SDS011;28233;55.748;48.752;2023-05-10T09:15:50;3.05;;;0.80;;
42602;SDS011;28233;55.748;48.752;2023-05-10T09:17:54;0.93;;;0.52;;
42602;SDS011;28233;55.748;48.752;2023-05-10T09:19:58;4.90;;;1.08;;
42602;SDS011;28233;55.748;48.752;2023-05-10T09:22:01;0.98;;;0.40;;
42602;SDS011;28233;55.748;48.752;2023-05-10T09:24:07;7.20;;;0.80;;
42602;SDS011;28233;55.748;48.752;2023-05-10T09:26:11;1.45;;;0.60;;
42602;SDS011;28233;55.748;48.752;2023-05-10T09:28:13;1.60;;;0.80;;
42602;SDS011;28233;55.748;48.752;2023-05-10T09:30:25;2.78;;;0.80;;
42602;SDS011;28233;55.748;48.752;2023-05-10T09:32:46;2.15;;;0.80;;
42602;SDS011;28233;55.748;48.752;2023-05-10T09:34:50;1.05;;;0.75;;
42602;SDS011;28233;55.748;48.752;2023-05-10T09:36:54;1.25;;;0.52;;
42602;SDS011;28233;55.748;48.752;2023-05-10T09:38:59;1.30;;;0.50;;
42602;SDS011;28233;55.748;48.752;2023-05-10T09:41:01;2.35;;;0.50;;
42602;SDS011;28233;55.748;48.752;2023-05-10T09:43:07;1.83;;;0.68;;
42602;SDS011;28233;55.748;48.752;2023-05-10T09:45:10;2.38;;;0.75;;
42602;SDS011;28233;55.748;48.752;2023-05-10T09:47:17;1.17;;;0.60;;
42602;SDS011;28233;55.748;48.752;2023-05-10T09:49:21;1.88;;;0.60;;
42602;SDS011;28233;55.748;48.752;2023-05-10T09:51:24;3.42;;;1.00;;
42602;SDS011;28233;55.748;48.752;2023-05-10T09:53:29;1.00;;;0.45;;
42602;SDS011;28233;55.748;48.752;2023-05-10T09:57:47;0.93;;;0.40;;
42602;SDS011;28233;55.748;48.752;2023-05-10T09:59:51;1.75;;;0.80;;
42602;SDS011;28233;55.748;48.752;2023-05-10T10:01:56;2.63;;;0.70;;
42602;SDS011;28233;55.748;48.752;2023-05-10T10:04:04;4.05;;;0.80;;
42602;SDS011;28233;55.748;48.752;2023-05-10T10:06:08;1.73;;;0.60;;
42602;SDS011;28233;55.748;48.752;2023-05-10T10:08:27;1.17;;;0.50;;
42602;SDS011;28233;55.748;48.752;2023-05-10T10:10:30;2.10;;;0.60;;
42602;SDS011;28233;55.748;48.752;2023-05-10T10:12:34;0.85;;;0.40;;
42602;SDS011;28233;55.748;48.752;2023-05-10T10:14:37;2.13;;;0.60;;
42602;SDS011;28233;55.748;48.752;2023-05-10T10:16:41;0.55;;;0.52;;
42602;SDS011;28233;55.748;48.752;2023-05-10T10:19:03;0.98;;;0.63;;
42602;SDS011;28233;55.748;48.752;2023-05-10T10:21:06;5.22;;;0.90;;
42602;SDS011;28233;55.748;48.752;2023-05-10T10:23:10;34.10;;;5.78;;
42602;SDS011;28233;55.748;48.752;2023-05-10T10:25:15;1.35;;;0.68;;
42602;SDS011;28233;55.748;48.752;2023-05-10T10:29:39;1.20;;;0.70;;
42602;SDS011;28233;55.748;48.752;2023-05-10T10:34:42;1.48;;;0.70;;
42602;SDS011;28233;55.748;48.752;2023-05-10T10:36:46;3.70;;;0.55;;
42602;SDS011;28233;55.748;48.752;2023-05-10T10:38:59;1.63;;;0.65;;
42602;SDS011;28233;55.748;48.752;2023-05-10T10:41:10;1.67;;;0.85;;
42602;SDS011;28233;55.748;48.752;2023-05-10T10:43:29;1.58;;;0.68;;
42602;SDS011;28233;55.748;48.752;2023-05-10T10:45:32;2.45;;;0.60;;
42602;SDS011;28233;55.748;48.752;2023-05-10T10:47:35;2.53;;;0.60;;
42602;SDS011;28233;55.748;48.752;2023-05-10T10:52:12;2.35;;;0.50;;
42602;SDS011;28233;55.748;48.752;2023-05-10T10:54:28;1.70;;;0.70;;
42602;SDS011;28233;55.748;48.752;2023-05-10T10:56:31;3.05;;;0.40;;
42602;SDS011;28233;55.748;48.752;2023-05-10T10:58:38;3.65;;;1.20;;
42602;SDS011;28233;55.748;48.752;2023-05-10T11:00:41;3.55;;;0.70;;
42602;SDS011;28233;55.748;48.752;2023-05-10T11:02:47;1.58;;;0.43;;
42602;SDS011;28233;55.748;48.752;2023-05-10T11:04:51;2.72;;;0.65;;
42602;SDS011;28233;55.748;48.752;2023-05-10T11:07:15;0.88;;;0.50;;
42602;SDS011;28233;55.748;48.752;2023-05-10T11:09:21;3.22;;;0.60;;
42602;SDS011;28233;55.748;48.752;2023-05-10T11:11:27;3.17;;;0.77;;
42602;SDS011;28233;55.748;48.752;2023-05-10T11:13:44;2.35;;;0.60;;
42602;SDS011;28233;55.748;48.752;2023-05-10T11:15:51;2.90;;;0.50;;
42602;SDS011;28233;55.748;48.752;2023-05-10T11:17:54;4.82;;;0.70;;
42602;SDS011;28233;55.748;48.752;2023-05-10T11:20:10;2.92;;;0.93;;
42602;SDS011;28233;55.748;48.752;2023-05-10T11:22:16;1.00;;;0.60;;
42602;SDS011;28233;55.748;48.752;2023-05-10T11:24:21;2.22;;;0.50;;
42602;SDS011;28233;55.748;48.752;2023-05-10T11:26:32;1.17;;;0.55;;
42602;SDS011;28233;55.748;48.752;2023-05-10T11:28:44;3.08;;;0.70;;
42602;SDS011;28233;55.748;48.752;2023-05-10T11:30:48;1.30;;;0.52;;
42602;SDS011;28233;55.748;48.752;2023-05-10T11:32:51;3.28;;;0.52;;
42602;SDS011;28233;55.748;48.752;2023-05-10T11:34:54;1.73;;;0.77;;
42602;SDS011;28233;55.748;48.752;2023-05-10T11:36:57;1.50;;;0.50;;
42602;SDS011;28233;55.748;48.752;2023-05-10T11:39:00;4.85;;;0.60;;
42602;SDS011;28233;55.748;48.752;2023-05-10T11:41:03;0.95;;;0.60;;
42602;SDS011;28233;55.748;48.752;2023-05-10T11:43:05;1.92;;;0.55;;
42602;SDS011;28233;55.748;48.752;2023-05-10T11:45:08;3.65;;;0.70;;
42602;SDS011;28233;55.748;48.752;2023-05-10T11:47:12;0.95;;;0.75;;
42602;SDS011;28233;55.748;48.752;2023-05-10T11:49:14;1.75;;;0.60;;
42602;SDS011;28233;55.748;48.752;2023-05-10T11:51:21;1.45;;;0.50;;
42602;SDS011;28233;55.748;48.752;2023-05-10T11:53:31;1.13;;;0.50;;
42602;SDS011;28233;55.748;48.752;2023-05-10T11:55:34;2.38;;;0.90;;
42602;SDS011;28233;55.748;48.752;2023-05-10T11:57:37;0.77;;;0.40;;
42602;SDS011;28233;55.748;48.752;2023-05-10T11:59:40;0.98;;;0.55;;
42602;SDS011;28233;55.748;48.752;2023-05-10T12:01:44;1.33;;;0.57;;
42602;SDS011;28233;55.748;48.752;2023-05-10T12:03:47;2.03;;;0.93;;
42602;SDS011;28233;55.748;48.752;2023-05-10T12:05:50;4.32;;;0.60;;
42602;SDS011;28233;55.748;48.752;2023-05-10T12:08:09;1.30;;;0.90;;
42602;SDS011;28233;55.748;48.752;2023-05-10T12:10:13;3.88;;;0.68;;
42602;SDS011;28233;55.748;48.752;2023-05-10T12:12:17;0.77;;;0.60;;
42602;SDS011;28233;55.748;48.752;2023-05-10T12:14:21;2.03;;;0.93;;
42602;SDS011;28233;55.748;48.752;2023-05-10T12:16:25;4.53;;;0.77;;
42602;SDS011;28233;55.748;48.752;2023-05-10T12:18:30;1.40;;;0.60;;
42602;SDS011;28233;55.748;48.752;2023-05-10T12:20:33;1.17;;;0.45;;
42602;SDS011;28233;55.748;48.752;2023-05-10T12:22:36;1.90;;;0.70;;
42602;SDS011;28233;55.748;48.752;2023-05-10T12:24:39;1.17;;;0.40;;
42602;SDS011;28233;55.748;48.752;2023-05-10T12:26:42;3.72;;;0.47;;
42602;SDS011;28233;55.748;48.752;2023-05-10T12:28:47;1.90;;;0.60;;
42602;SDS011;28233;55.748;48.752;2023-05-10T12:30:50;6.30;;;0.70;;
42602;SDS011;28233;55.748;48.752;2023-05-10T12:33:00;3.40;;;0.68;;
42602;SDS011;28233;55.748;48.752;2023-05-10T12:35:04;1.23;;;0.80;;
42602;SDS011;28233;55.748;48.752;2023-05-10T12:37:07;2.17;;;0.90;;
42602;SDS011;28233;55.748;48.752;2023-05-10T12:39:10;2.65;;;0.90;;
42602;SDS011;28233;55.748;48.752;2023-05-10T12:41:14;1.73;;;0.57;;
42602;SDS011;28233;55.748;48.752;2023-05-10T12:43:19;1.50;;;0.70;;
42602;SDS011;28233;55.748;48.752;2023-05-10T12:45:22;1.20;;;0.77;;
42602;SDS011;28233;55.748;48.752;2023-05-10T12:47:25;3.42;;;0.75;;
42602;SDS011;28233;55.748;48.752;2023-05-10T12:49:28;3.22;;;0.60;;
42602;SDS011;28233;55.748;48.752;2023-05-10T12:51:30;2.35;;;0.57;;